Nearby METAR Reports

 

KSJC - San Jose, California, USA
Distance from station: NE 9mi, 14km
Updated: Sun, 19-Apr-2015 7:53am PDT
Overcast
Overcast
 Wind from ESE
Wind: ESE 8 mph , 13 km/h
Temperature: 52°F , 11°C
Dew Point: 46°F , 8°C
Humidity: 82%
Barometer: 29.98 inHg , 1015.2 hPa
Clouds: Overcast
Visibility: 8 miles , 13 km
Cloud details: Few Clouds 700 ft
Mostly cloudy 900 ft
Overcast 1200 ft
2015/04/19 14:53 KSJC 191453Z 12007KT 8SM FEW007 BKN009 OVC012 11/08 A2998 RMK AO2 SLP153 T01110083 53009
KNUQ - Moffett Nas/Mtn, California, USA
Distance from station: N 9mi, 14km
Updated: Sun, 19-Apr-2015 7:56am PDT
Overcast
Overcast
 Wind from SE
Wind: SE 5 mph , 7 km/h
Temperature: 54°F , 12°C
Dew Point: 48°F , 9°C
Humidity: 82%
Barometer: 29.99 inHg , 1015.6 hPa
Clouds: Overcast
Visibility: 10 miles , 16 km
Cloud details: Overcast 1100 ft
2015/04/19 14:56 KNUQ 191456Z 14004KT 10SM OVC011 12/09 A2999 RMK AO2 SLP159 T01170089 53011
 
KPAO - Palo Alto, California, USA
Distance from station: NNW 14mi, 23km
Updated: Sun, 19-Apr-2015 7:55am PDT
Overcast
Overcast
 Wind from varies
Wind: varies 6 mph , 9 km/h
Temperature: 59°F , 15°C
Dew Point: 55°F , 13°C
Humidity: 88%
Barometer: 29.98 inHg , 1015.2 hPa
Clouds: Overcast
Visibility: 7 miles , 11 km
Cloud details: Overcast 1000 ft
2015/04/19 14:55 KPAO 191455Z VRB05KT 7SM OVC010 15/13 A2998
KRHV - San Jose/Reid, California, USA
Distance from station: ENE 12mi, 19km
Updated: Sun, 19-Apr-2015 7:47am PDT
Overcast
Overcast
 Wind from S
Wind: S 12 mph , 19 km/h
Temperature: 50°F , 10°C
Wind Chill: 45°F , 7°C
Dew Point: 48°F , 9°C
Humidity: 94%
Barometer: 29.99 inHg , 1015.6 hPa
Clouds: Overcast
Visibility: 10 miles , 16 km
Cloud details: Overcast 800 ft
2015/04/19 14:47 KRHV 191447Z 18010KT 10SM OVC008 10/09 A2999
 
KOAK - Oakland, California, USA
Distance from station: NNW 31mi, 50km
Updated: Sun, 19-Apr-2015 7:53am PDT
Haze, Overcast
Haze, Overcast
 Wind from NNW
Wind: NNW 3 mph , 6 km/h
Temperature: 54°F , 12°C
Dew Point: 48°F , 9°C
Humidity: 82%
Barometer: 29.99 inHg , 1015.6 hPa
Summary: Haze
Clouds: Overcast
Visibility: 6 miles , 10 km
Cloud details: Overcast 800 ft
2015/04/19 14:53 KOAK 191453Z 34003KT 6SM HZ OVC008 12/09 A2999 RMK AO2 SLP155 T01170089 53010
KSQL - San Carlos Airpo, California, USA
Distance from station: NW 21mi, 34km
Updated: Sun, 19-Apr-2015 7:50am PDT
Overcast
Overcast
 Wind from calm
Wind: Calm
Temperature: 54°F , 12°C
Dew Point: 50°F , 10°C
Humidity: 88%
Barometer: 30.00 inHg , 1015.9 hPa
Clouds: Overcast
Visibility: 10 miles , 16 km
Cloud details: Overcast 1000 ft
2015/04/19 14:50 KSQL 191450Z 00000KT 10SM OVC010 12/10 A3000
 
KSFO - San Francisco, California, USA
Distance from station: NW 30mi, 49km
Updated: Sun, 19-Apr-2015 7:56am PDT
Mostly cloudy
Mostly cloudy
 Wind from calm
Wind: Calm
Temperature: 54°F , 12°C
Dew Point: 52°F , 11°C
Humidity: 94%
Barometer: 29.99 inHg , 1015.6 hPa
Clouds: Mostly cloudy
Visibility: 10 miles , 16 km
Cloud details: Few Clouds 700 ft
Mostly cloudy 1000 ft
2015/04/19 14:56 KSFO 191456Z 00000KT 10SM FEW007 BKN010 12/11 A2999 RMK AO2 SLP156 T01170106 53010
KE16 - San Martin, California, USA
Distance from station: ESE 27mi, 43km
Updated: Sun, 19-Apr-2015 8:15am PDT
Overcast
Overcast
 Wind from SE
Wind: SE 6 mph , 9 km/h
Temperature: 48°F , 9°C
Wind Chill: 45°F , 7°C
Dew Point: 48°F , 9°C
Humidity: 100%
Barometer: 30.01 inHg , 1016.3 hPa
Clouds: Overcast
Visibility: 8 miles , 13 km
Cloud details: Overcast 500 ft
2015/04/19 15:15 KE16 191515Z AUTO 14005KT 8SM OVC005 09/09 A3001 RMK AO2
 
KWVI - Watsonville, California, USA
Distance from station: SSE 27mi, 44km
Updated: Sun, 19-Apr-2015 7:53am PDT
Overcast
Overcast
 Wind from calm
Wind: Calm
Temperature: 52°F , 11°C
Dew Point: 48°F , 9°C
Humidity: 88%
Barometer: 30.01 inHg , 1016.3 hPa
Clouds: Overcast
Visibility: 9 miles , 14 km
Cloud details: Overcast 500 ft
2015/04/19 14:53 KWVI 191453Z AUTO 00000KT 9SM OVC005 11/09 A3001 RMK AO2 SLP161 T01110094 51006
KHAF - Half Moon Bay, California, USA
Distance from station: WNW 31mi, 50km
Updated: Sun, 19-Apr-2015 8:15am PDT
Mist, Overcast
Mist, Overcast
 Wind from SE
Wind: SE 7 mph , 11 km/h
Temperature: 50°F , 10°C
Wind Chill: 47°F , 8°C
Dew Point: 48°F , 9°C
Humidity: 94%
Barometer: 30.01 inHg , 1016.3 hPa
Summary: Mist
Clouds: Overcast
Visibility: 3 miles , 5 km
Cloud details: Overcast 600 ft
2015/04/19 15:15 KHAF 191515Z AUTO 13006KT 3SM BR OVC006 10/09 A3001 RMK AO2
 
KHWD - Hayward, California, USA
Distance from station: N 28mi, 44km
Updated: Sun, 19-Apr-2015 7:54am PDT
Mist, Overcast
Mist, Overcast
 Wind from NNW
Wind: NNW 3 mph , 6 km/h
Temperature: 54°F , 12°C
Dew Point: 50°F , 10°C
Humidity: 88%
Barometer: 29.98 inHg , 1015.2 hPa
Summary: Mist
Clouds: Overcast
Visibility: 6 miles , 10 km
Cloud details: Overcast 900 ft
2015/04/19 14:54 KHWD 191454Z 33003KT 6SM BR OVC009 12/10 A2998 RMK AO2 SLP163 T01220100 53009 $
KLVK - Livermore, California, USA
Distance from station: NNE 31mi, 51km
Updated: Sun, 19-Apr-2015 7:53am PDT
Haze, Overcast
Haze, Overcast
 Wind from NW
Wind: NW 6 mph , 9 km/h
Temperature: 54°F , 12°C
Dew Point: 48°F , 9°C
Humidity: 82%
Barometer: 29.97 inHg , 1014.9 hPa
Summary: Haze
Clouds: Overcast
Visibility: 6 miles , 10 km
Cloud details: Overcast 900 ft
2015/04/19 14:53 KLVK 191453Z 32005KT 6SM HZ OVC009 12/09 A2997 RMK AO2 SLP147 T01220094 53012